Time;durP1;ratioP1;P1;durP2;ratioP2;P2;SDS_P1;SDS_P2;PMS_P1;PMS_P2;Temp;Humidity;BMP_temperature;BMP_pressure;BME280_temperature;BME280_humidity;BME280_pressure;Samples;Min_cycle;Max_cycle;Signal;HPM_P1;HPM_P2
2022/02/28 00:01:26;;;;;;;10.93;4.82;;;;;;;4.48;63.97;103006.75;5014751;28;20050;-45
2022/02/28 00:03:56;;;;;;;11.73;4.95;;;;;;;4.49;63.23;103005.72;5032168;28;20070;-44
2022/02/28 00:06:26;;;;;;;11.13;5.28;;;;;;;4.48;63.08;103014.84;5034183;28;20053;-46
2022/02/28 00:08:54;;;;;;;10.63;5.20;;;;;;;4.46;63.18;103008.78;5032146;28;20093;-45
2022/02/28 00:11:22;;;;;;;9.68;5.10;;;;;;;4.42;63.77;103010.13;5033915;28;20128;-44
2022/02/28 00:13:49;;;;;;;12.65;5.82;;;;;;;4.39;63.75;103013.19;5020049;28;20080;-46
2022/02/28 00:16:17;;;;;;;11.13;6.10;;;;;;;4.35;63.63;103009.13;5014076;28;20438;-47
2022/02/28 00:18:45;;;;;;;15.27;6.78;;;;;;;4.34;63.46;103012.88;5014065;28;20100;-44
2022/02/28 00:21:12;;;;;;;15.70;7.72;;;;;;;4.33;63.57;103017.44;5012737;28;20129;-46
2022/02/28 00:23:40;;;;;;;14.77;6.35;;;;;;;4.30;63.52;103012.34;5032576;28;20041;-45
2022/02/28 00:26:08;;;;;;;11.48;5.40;;;;;;;4.27;63.24;103018.94;5033645;28;20120;-43
2022/02/28 00:28:36;;;;;;;10.73;5.78;;;;;;;4.25;63.45;103015.56;5031770;28;20443;-43
2022/02/28 00:31:03;;;;;;;10.05;5.30;;;;;;;4.22;63.37;103007.81;5032417;28;20103;-46
2022/02/28 00:33:31;;;;;;;10.02;5.22;;;;;;;4.21;63.27;103006.16;5019772;28;20038;-46
2022/02/28 00:36:00;;;;;;;8.88;4.55;;;;;;;4.18;63.12;103005.63;5012546;28;20050;-43
2022/02/28 00:38:28;;;;;;;12.20;4.85;;;;;;;4.16;63.55;103005.81;5013866;28;20129;-46
2022/02/28 00:40:56;;;;;;;12.02;5.60;;;;;;;4.18;64.06;103005.63;5012769;28;20072;-45
2022/02/28 00:43:24;;;;;;;13.65;6.65;;;;;;;4.18;63.56;103002.94;5013673;28;20054;-44
2022/02/28 00:45:52;;;;;;;15.88;6.90;;;;;;;4.14;63.38;103007.84;5012398;28;20120;-45
2022/02/28 00:48:20;;;;;;;12.63;6.18;;;;;;;4.12;63.44;103001.78;4997576;28;20113;-45
2022/02/28 00:50:48;;;;;;;12.93;5.13;;;;;;;4.12;63.45;102999.09;5012261;28;20044;-44
2022/02/28 00:53:16;;;;;;;10.60;5.00;;;;;;;4.12;63.85;102999.09;5013413;28;20096;-46
2022/02/28 00:55:44;;;;;;;8.55;4.10;;;;;;;4.13;63.09;103002.63;5013909;28;20068;-44
2022/02/28 00:58:11;;;;;;;9.23;4.30;;;;;;;4.10;63.49;102995.72;5011672;28;20038;-45
2022/02/28 01:00:39;;;;;;;10.18;4.60;;;;;;;4.10;63.40;102995.72;5012441;28;20124;-46
2022/02/28 01:03:07;;;;;;;8.13;4.28;;;;;;;4.13;63.20;102994.53;5013932;28;20049;-44
2022/02/28 01:05:36;;;;;;;9.30;4.22;;;;;;;4.13;63.06;102989.13;5012412;28;20473;-46
2022/02/28 01:08:04;;;;;;;9.05;4.22;;;;;;;4.11;62.87;102989.28;5014136;28;20077;-46
2022/02/28 01:10:31;;;;;;;8.48;4.15;;;;;;;4.10;63.23;102981.38;5012527;28;20053;-45
2022/02/28 01:12:59;;;;;;;8.20;4.22;;;;;;;4.09;63.85;102980.53;5015427;28;20038;-46
2022/02/28 01:15:29;;;;;;;8.63;4.05;;;;;;;4.06;63.26;102972.78;5032903;28;20522;-45
2022/02/28 01:17:57;;;;;;;8.65;4.25;;;;;;;4.03;63.29;102984.75;5022017;28;20496;-45
2022/02/28 01:20:24;;;;;;;9.02;4.32;;;;;;;4.03;63.41;102979.34;5011997;28;20045;-46
2022/02/28 01:22:52;;;;;;;9.27;4.28;;;;;;;4.07;63.34;102979.03;5011986;28;20038;-47
2022/02/28 01:25:20;;;;;;;9.48;3.90;;;;;;;4.07;63.35;102990.66;5011487;28;20129;-48
2022/02/28 01:27:48;;;;;;;9.23;4.28;;;;;;;4.06;63.52;102983.56;5012840;28;20064;-48
2022/02/28 01:30:16;;;;;;;7.63;4.10;;;;;;;4.06;63.43;102988.97;5012860;28;20046;-47
2022/02/28 01:32:45;;;;;;;8.90;4.00;;;;;;;4.11;63.14;102996.53;5011869;28;20053;-47
2022/02/28 01:35:13;;;;;;;8.32;4.28;;;;;;;4.12;63.10;102996.38;5003939;28;20042;-45
2022/02/28 01:37:41;;;;;;;8.65;4.03;;;;;;;4.13;63.15;102991.81;5011823;28;20056;-47
2022/02/28 01:40:11;;;;;;;8.38;3.92;;;;;;;4.11;63.52;102994.69;5026867;28;20124;-47
2022/02/28 01:42:40;;;;;;;9.05;4.15;;;;;;;4.10;63.71;102994.88;5012766;28;20082;-48
2022/02/28 01:45:13;;;;;;;8.10;4.30;;;;;;;4.08;63.06;102986.94;5012680;28;20042;-45
2022/02/28 01:47:41;;;;;;;8.18;4.10;;;;;;;4.05;63.56;102996.22;5012910;28;20042;-48
2022/02/28 01:50:10;;;;;;;8.10;3.85;;;;;;;4.04;63.60;102988.28;5012659;28;20608;-46
2022/02/28 01:52:39;;;;;;;7.30;3.92;;;;;;;4.02;63.37;102987.63;4995331;28;20052;-45
2022/02/28 01:55:09;;;;;;;7.57;3.80;;;;;;;3.99;63.69;102988.81;5025696;28;20053;-46
2022/02/28 01:57:36;;;;;;;9.10;3.70;;;;;;;3.98;63.19;102986.28;5030202;28;20048;-46
2022/02/28 02:00:07;;;;;;;6.43;3.67;;;;;;;3.97;63.94;102987.28;5011476;28;20048;-46
2022/02/28 02:02:40;;;;;;;8.82;3.80;;;;;;;3.95;63.47;102986.63;5011739;28;20052;-44
2022/02/28 02:05:09;;;;;;;8.38;3.60;;;;;;;3.92;63.47;102990.53;5011289;28;20129;-47
2022/02/28 02:07:37;;;;;;;11.00;4.00;;;;;;;3.93;63.24;102988.66;5011369;28;20049;-47
2022/02/28 02:10:07;;;;;;;7.68;3.67;;;;;;;3.94;63.69;102990.31;4999457;28;20050;-45
2022/02/28 02:12:35;;;;;;;7.15;3.70;;;;;;;3.96;63.59;102988.31;5015377;28;20471;-46
2022/02/28 02:15:09;;;;;;;10.55;4.60;;;;;;;3.94;63.41;102990.31;5012708;28;20049;-46
2022/02/28 02:17:37;;;;;;;8.38;4.10;;;;;;;3.90;63.69;102995.25;5017470;28;20045;-45
2022/02/28 02:20:18;;;;;;;9.77;4.15;;;;;;;3.86;63.68;102988.50;5003211;28;20076;-46
2022/02/28 02:23:07;;;;;;;8.65;3.97;;;;;;;3.84;64.13;102985.94;5033948;28;20574;-45
2022/02/28 02:25:37;;;;;;;7.53;4.10;;;;;;;3.84;63.54;102990.50;5035988;28;20103;-44
2022/02/28 02:28:08;;;;;;;8.45;4.15;;;;;;;3.87;64.17;102989.31;5033043;28;20443;-45
2022/02/28 02:30:36;;;;;;;8.38;4.20;;;;;;;3.88;63.48;102996.41;5035700;28;20120;-46
2022/02/28 02:33:06;;;;;;;8.05;4.07;;;;;;;3.84;63.76;102991.34;5032087;28;20042;-45
2022/02/28 02:35:34;;;;;;;8.23;4.15;;;;;;;3.82;63.69;102990.69;5015338;28;20046;-45
2022/02/28 02:38:02;;;;;;;6.35;3.78;;;;;;;3.82;63.44;102989.84;5024138;28;20069;-45
2022/02/28 02:40:29;;;;;;;9.45;3.80;;;;;;;3.80;63.65;102979.22;5018041;28;20471;-46
2022/02/28 02:42:57;;;;;;;7.22;4.18;;;;;;;3.79;63.79;102977.53;5030326;28;20393;-44
2022/02/28 02:45:25;;;;;;;9.18;3.88;;;;;;;3.81;63.43;102974.69;5015778;28;20046;-45
2022/02/28 02:47:55;;;;;;;7.32;4.00;;;;;;;3.80;63.82;102972.97;5000869;28;20054;-45
2022/02/28 02:50:22;;;;;;;6.97;3.78;;;;;;;3.75;63.99;102970.81;5034631;28;20037;-47
2022/02/28 02:52:50;;;;;;;7.53;4.10;;;;;;;3.72;63.86;102976.53;5033133;28;20041;-44
2022/02/28 02:55:20;;;;;;;9.20;3.95;;;;;;;3.71;64.07;102972.16;5009673;28;20072;-46
2022/02/28 02:57:48;;;;;;;7.82;4.15;;;;;;;3.70;63.84;102970.47;5014208;28;20527;-44
2022/02/28 03:00:19;;;;;;;8.90;3.92;;;;;;;3.70;64.23;102962.38;5014244;28;20121;-47
2022/02/28 03:02:59;;;;;;;7.68;3.95;;;;;;;3.74;63.54;102962.88;5010907;28;20049;-46
2022/02/28 03:05:28;;;;;;;9.73;4.35;;;;;;;3.75;64.07;102960.03;5001999;28;20116;-45
2022/02/28 03:07:56;;;;;;;8.77;4.03;;;;;;;3.76;63.86;102966.25;5035548;28;20045;-45
2022/02/28 03:10:25;;;;;;;9.48;4.00;;;;;;;3.77;63.34;102963.38;5033947;28;20050;-45
2022/02/28 03:12:54;;;;;;;8.25;4.15;;;;;;;3.76;62.99;102967.09;5027166;28;20068;-46
2022/02/28 03:15:23;;;;;;;7.55;4.00;;;;;;;3.75;63.39;102959.16;5014155;28;20042;-44
2022/02/28 03:17:52;;;;;;;8.55;3.90;;;;;;;3.74;63.82;102958.34;5014277;28;20042;-44
2022/02/28 03:20:20;;;;;;;9.43;4.10;;;;;;;3.73;63.36;102951.25;5014563;28;20117;-46
2022/02/28 03:22:48;;;;;;;9.20;4.00;;;;;;;3.75;63.99;102957.34;5014324;28;20142;-45
2022/02/28 03:25:18;;;;;;;8.50;4.15;;;;;;;3.79;63.11;102955.13;5014167;28;20045;-46
2022/02/28 03:27:54;;;;;;;9.70;4.30;;;;;;;3.84;63.81;102960.84;5013677;28;20049;-45
2022/02/28 03:30:22;;;;;;;8.68;4.15;;;;;;;3.89;62.71;102949.56;4997796;28;20076;-46
2022/02/28 03:32:50;;;;;;;9.20;3.97;;;;;;;3.95;62.85;102957.81;5026586;28;20037;-44
2022/02/28 03:35:18;;;;;;;8.23;4.00;;;;;;;3.99;62.55;102955.59;5014103;28;20050;-47
2022/02/28 03:37:46;;;;;;;8.02;3.90;;;;;;;4.01;62.13;102964.38;5013885;28;20042;-44
2022/02/28 03:40:14;;;;;;;12.93;4.20;;;;;;;3.99;62.58;102953.75;5015235;28;20088;-46
2022/02/28 03:42:41;;;;;;;8.55;4.15;;;;;;;3.96;62.43;102958.63;5027530;28;20088;-45
2022/02/28 03:45:09;;;;;;;10.18;4.32;;;;;;;3.92;62.86;102958.16;5033593;28;20045;-46
2022/02/28 03:47:38;;;;;;;6.32;3.95;;;;;;;3.93;62.73;102953.59;5033456;28;20046;-46
2022/02/28 03:50:28;;;;;;;8.35;4.10;;;;;;;3.93;62.30;102961.69;5034240;28;20045;-47
2022/02/28 03:52:56;;;;;;;9.30;4.43;;;;;;;3.90;63.00;102953.94;5030014;28;20044;-46
2022/02/28 03:55:26;;;;;;;9.05;4.03;;;;;;;3.88;62.58;102962.19;5034695;28;20040;-45
2022/02/28 03:57:55;;;;;;;9.68;4.22;;;;;;;3.84;62.67;102966.25;5000702;28;20187;-45
2022/02/28 04:00:28;;;;;;;7.60;4.28;;;;;;;3.85;62.90;102970.63;5033100;28;20038;-46
2022/02/28 04:02:56;;;;;;;10.52;4.45;;;;;;;3.84;63.38;102967.06;5025978;28;20064;-47
2022/02/28 04:05:25;;;;;;;7.90;3.97;;;;;;;3.84;63.09;102966.25;5013331;28;20125;-45
2022/02/28 04:07:53;;;;;;;8.38;4.38;;;;;;;3.81;63.20;102969.28;5013366;28;20455;-45
2022/02/28 04:10:20;;;;;;;8.80;3.90;;;;;;;3.78;63.28;102973.16;5014424;28;20580;-44
2022/02/28 04:12:48;;;;;;;9.38;4.32;;;;;;;3.71;63.25;102961.38;5023059;28;20116;-45
2022/02/28 04:15:16;;;;;;;8.40;4.38;;;;;;;3.64;63.37;102973.84;5033556;28;20038;-44
2022/02/28 04:17:44;;;;;;;8.57;4.20;;;;;;;3.60;63.16;102967.09;5033173;28;20389;-46
2022/02/28 04:20:27;;;;;;;7.28;3.97;;;;;;;3.55;64.05;102964.06;5032138;28;20045;-45
2022/02/28 04:22:55;;;;;;;12.23;4.20;;;;;;;3.52;63.79;102962.56;5012948;28;20440;-45
2022/02/28 04:25:23;;;;;;;7.25;3.90;;;;;;;3.48;63.99;102957.66;5015356;28;20046;-44
2022/02/28 04:27:54;;;;;;;8.90;4.43;;;;;;;3.47;64.23;102962.22;5012560;28;20108;-45
2022/02/28 04:30:22;;;;;;;9.27;4.47;;;;;;;3.42;63.83;102954.63;5012725;28;20120;-47
2022/02/28 04:32:51;;;;;;;6.80;3.85;;;;;;;3.40;64.23;102964.75;5012902;28;20121;-45
2022/02/28 04:35:20;;;;;;;8.35;4.03;;;;;;;3.39;64.46;102957.69;5025025;28;20049;-45
2022/02/28 04:37:58;;;;;;;8.15;4.10;;;;;;;3.40;64.31;102962.03;5032297;28;20136;-44
2022/02/28 04:40:28;;;;;;;8.18;4.07;;;;;;;3.38;64.35;102949.75;5031429;28;20100;-43
2022/02/28 04:42:55;;;;;;;10.15;4.22;;;;;;;3.36;64.37;102957.16;5032132;28;20057;-45
2022/02/28 04:45:23;;;;;;;8.95;4.20;;;;;;;3.32;64.26;102951.28;5023232;28;20457;-45
2022/02/28 04:47:52;;;;;;;7.70;4.28;;;;;;;3.28;64.88;102963.38;5012353;28;20038;-45
2022/02/28 04:50:23;;;;;;;11.23;4.28;;;;;;;3.27;64.73;102956.31;5013640;28;20038;-45
2022/02/28 04:52:52;;;;;;;6.93;4.10;;;;;;;3.28;64.58;102958.00;5029993;28;20404;-47
2022/02/28 04:55:22;;;;;;;9.52;4.55;;;;;;;3.28;64.56;102963.38;5011460;28;20065;-46
2022/02/28 04:57:50;;;;;;;7.70;4.10;;;;;;;3.27;64.51;102950.94;5012101;28;20404;-45
2022/02/28 05:00:46;;;;;;;;;;;;;;;3.25;64.34;102960.16;5015923;28;20041;-45
2022/02/28 05:03:15;;;;;;;9.25;4.22;;;;;;;3.23;65.17;102952.25;4996829;28;20020;-46
2022/02/28 05:05:44;;;;;;;7.57;4.30;;;;;;;3.19;65.00;102948.22;4999629;28;20096;-45
2022/02/28 05:08:13;;;;;;;7.57;3.83;;;;;;;3.16;65.14;102951.25;5032307;28;20515;-46
2022/02/28 05:10:42;;;;;;;9.60;4.15;;;;;;;3.17;65.27;102963.69;5028062;28;20121;-47
2022/02/28 05:13:14;;;;;;;11.00;4.82;;;;;;;3.14;65.07;102955.94;5012112;28;20077;-45
2022/02/28 05:15:42;;;;;;;10.95;4.68;;;;;;;3.10;64.85;102970.75;5012834;28;20120;-46
2022/02/28 05:18:11;;;;;;;11.80;4.90;;;;;;;3.06;64.89;102958.66;5030424;28;20132;-45
2022/02/28 05:20:40;;;;;;;14.32;5.20;;;;;;;3.00;65.46;102962.81;5032064;28;20076;-46
2022/02/28 05:23:08;;;;;;;11.57;4.90;;;;;;;2.97;65.66;102958.59;5015888;28;20170;-45
2022/02/28 05:25:36;;;;;;;8.88;4.97;;;;;;;2.98;65.45;102960.31;5027305;28;20042;-47
2022/02/28 05:28:25;;;;;;;9.00;4.68;;;;;;;2.95;65.16;102957.09;5002554;28;20111;-45
2022/02/28 05:30:53;;;;;;;12.40;4.90;;;;;;;2.87;65.45;102949.00;5031481;28;20041;-41
2022/02/28 05:33:21;;;;;;;10.90;4.72;;;;;;;2.83;66.05;102958.41;5031344;28;20042;-42
2022/02/28 05:35:54;;;;;;;11.23;5.22;;;;;;;2.81;65.87;102957.72;5029850;28;20042;-42
2022/02/28 05:38:40;;;;;;;;;;;;;;;2.80;66.18;102958.75;5032416;28;20049;-45
2022/02/28 05:41:10;;;;;;;13.43;5.10;;;;;;;2.79;66.00;102960.59;5015413;28;19927;-45
2022/02/28 05:43:46;;;;;;;13.88;5.13;;;;;;;2.80;66.46;102964.97;5033172;28;20053;-47
2022/02/28 05:46:14;;;;;;;11.85;5.03;;;;;;;2.77;66.76;102962.59;5026366;28;20053;-47
2022/02/28 05:49:02;;;;;;;15.48;5.55;;;;;;;2.80;66.66;102969.50;5031220;28;20427;-44
2022/02/28 05:51:33;;;;;;;11.40;4.70;;;;;;;2.81;66.72;102971.19;5037570;28;20446;-45
2022/02/28 05:54:02;;;;;;;10.50;5.38;;;;;;;2.83;66.33;102975.38;5038844;28;20076;-44
2022/02/28 05:56:29;;;;;;;10.35;4.70;;;;;;;2.83;66.17;102969.16;5037325;28;20125;-45
2022/02/28 05:58:57;;;;;;;11.63;5.40;;;;;;;2.81;66.26;102990.03;5037898;28;20061;-47
2022/02/28 06:01:25;;;;;;;12.88;5.25;;;;;;;2.80;66.51;102982.97;5038106;28;20045;-45
2022/02/28 06:03:52;;;;;;;11.07;5.20;;;;;;;2.76;66.48;102979.75;4687914;28;10000041;-46
2022/02/28 06:06:20;;;;;;;10.68;5.07;;;;;;;2.76;67.13;102979.75;5021110;28;20454;-44
2022/02/28 06:08:48;;;;;;;10.23;5.22;;;;;;;2.76;66.83;102980.59;5028030;28;20041;-46
2022/02/28 06:11:16;;;;;;;10.82;5.28;;;;;;;2.75;66.97;102988.84;5034125;28;20045;-46
2022/02/28 06:13:43;;;;;;;11.85;5.32;;;;;;;2.74;67.11;102998.78;5050860;28;20072;-46
2022/02/28 06:16:11;;;;;;;10.35;5.00;;;;;;;2.73;67.18;102988.16;5023894;28;20080;-45
2022/02/28 06:18:39;;;;;;;14.35;5.88;;;;;;;2.71;66.88;102984.78;5015598;28;20591;-46
2022/02/28 06:21:06;;;;;;;9.55;4.90;;;;;;;2.64;66.96;102987.25;5015803;28;20079;-44
2022/02/28 06:23:34;;;;;;;11.95;5.35;;;;;;;2.62;67.46;102991.13;5015599;28;20128;-47
2022/02/28 06:26:02;;;;;;;9.55;5.18;;;;;;;2.59;67.22;102994.97;5018123;28;20120;-46
2022/02/28 06:28:32;;;;;;;15.95;6.13;;;;;;;2.59;67.63;102994.16;5015208;28;20045;-45
2022/02/28 06:31:00;;;;;;;13.57;7.35;;;;;;;2.56;67.44;102993.47;5016120;28;20465;-46
2022/02/28 06:33:27;;;;;;;15.13;6.95;;;;;;;2.50;67.23;103006.72;5016021;28;20129;-46
2022/02/28 06:35:55;;;;;;;14.40;7.03;;;;;;;2.48;67.63;103001.50;5030086;28;20051;-45
2022/02/28 06:38:26;;;;;;;16.90;6.47;;;;;;;2.51;68.11;102998.47;5034442;28;20057;-46
2022/02/28 06:40:53;;;;;;;10.90;5.88;;;;;;;2.54;67.88;103008.09;5034306;28;20068;-48
2022/02/28 06:43:24;;;;;;;13.68;6.63;;;;;;;2.55;67.73;103005.25;5035239;28;20106;-46
2022/02/28 06:45:53;;;;;;;13.90;5.95;;;;;;;2.54;67.63;103010.78;5031619;28;20056;-44
2022/02/28 06:48:21;;;;;;;13.65;6.10;;;;;;;2.49;67.66;103011.25;5033854;28;20042;-42
2022/02/28 06:50:50;;;;;;;12.07;5.93;;;;;;;2.52;68.15;103010.09;5035791;28;20487;-47
2022/02/28 06:53:22;;;;;;;12.68;5.93;;;;;;;2.51;67.68;103009.25;5035651;28;20073;-48
2022/02/28 06:55:52;;;;;;;12.43;6.18;;;;;;;2.53;67.94;103014.47;5021419;28;20033;-47
2022/02/28 06:58:21;;;;;;;11.73;6.18;;;;;;;2.52;67.96;103008.22;5012366;28;20049;-47
2022/02/28 07:00:51;;;;;;;11.10;6.20;;;;;;;2.50;67.68;103007.56;5012328;28;20074;-44
2022/02/28 07:03:38;;;;;;;12.98;6.25;;;;;;;2.46;68.05;103011.59;5020940;28;20095;-45
2022/02/28 07:06:06;;;;;;;16.42;6.53;;;;;;;2.46;68.25;103006.19;5020104;28;20116;-43
2022/02/28 07:08:35;;;;;;;13.30;6.30;;;;;;;2.47;68.97;103002.50;5012337;28;20112;-44
2022/02/28 07:11:03;;;;;;;11.88;5.93;;;;;;;2.52;68.84;103010.09;5010699;28;20038;-45
2022/02/28 07:13:32;;;;;;;12.40;5.95;;;;;;;2.58;68.65;103009.47;5010811;28;20037;-44
2022/02/28 07:16:00;;;;;;;9.57;5.80;;;;;;;2.63;68.54;103017.03;5015777;28;20033;-46
2022/02/28 07:18:28;;;;;;;11.95;6.50;;;;;;;2.65;68.42;103009.66;5032274;28;20049;-45
2022/02/28 07:20:56;;;;;;;9.73;5.60;;;;;;;2.70;68.35;103007.31;5031460;28;20057;-45
2022/02/28 07:23:24;;;;;;;13.43;6.03;;;;;;;2.77;68.21;103008.38;5030546;28;20045;-46
2022/02/28 07:25:52;;;;;;;13.63;6.30;;;;;;;2.84;68.12;103016.63;5021018;28;20057;-45
2022/02/28 07:28:20;;;;;;;10.73;5.68;;;;;;;2.90;68.50;103014.13;5013077;28;20133;-46
2022/02/28 07:30:48;;;;;;;12.13;5.85;;;;;;;2.92;67.45;103016.66;5013789;28;20496;-47
2022/02/28 07:33:16;;;;;;;14.73;5.93;;;;;;;2.93;67.22;103013.78;5012076;28;20049;-47
2022/02/28 07:35:44;;;;;;;11.82;5.60;;;;;;;2.94;67.52;103028.94;5012235;28;20096;-46
2022/02/28 07:38:12;;;;;;;11.10;5.57;;;;;;;2.96;67.40;103035.03;5010638;28;20129;-46
2022/02/28 07:40:40;;;;;;;12.38;5.90;;;;;;;2.98;66.86;103027.63;5011480;28;20077;-47
2022/02/28 07:43:08;;;;;;;13.70;5.93;;;;;;;3.01;67.06;103030.97;5016650;28;20061;-46
2022/02/28 07:45:36;;;;;;;11.48;5.88;;;;;;;2.99;66.94;103036.53;5020181;28;20129;-47
2022/02/28 07:48:04;;;;;;;11.57;6.35;;;;;;;3.02;66.89;103035.38;5011369;28;20046;-46
2022/02/28 07:50:32;;;;;;;11.25;5.95;;;;;;;3.00;66.73;103030.13;5011654;28;20495;-48
2022/02/28 07:52:59;;;;;;;13.68;6.60;;;;;;;2.99;67.34;103026.63;5015966;28;20103;-47
2022/02/28 07:55:27;;;;;;;10.45;5.75;;;;;;;3.00;67.32;103024.75;5031143;28;20207;-47
2022/02/28 07:57:55;;;;;;;11.50;5.95;;;;;;;3.03;67.70;103037.03;5029278;28;20060;-44
2022/02/28 08:00:23;;;;;;;11.68;6.47;;;;;;;3.05;67.50;103035.03;5031382;28;20060;-47
2022/02/28 08:02:52;;;;;;;13.25;6.18;;;;;;;3.08;66.99;103040.09;5019342;28;20042;-44
2022/02/28 08:05:20;;;;;;;9.73;5.50;;;;;;;3.11;67.07;103047.88;5011181;28;20062;-46
2022/02/28 08:07:48;;;;;;;12.38;6.32;;;;;;;3.15;66.77;103049.19;5011414;28;20050;-47
2022/02/28 08:10:15;;;;;;;12.20;5.88;;;;;;;3.17;67.25;103052.59;5011083;28;20073;-46
2022/02/28 08:12:43;;;;;;;11.02;5.70;;;;;;;3.21;67.71;103051.25;5025198;28;20046;-47
2022/02/28 08:15:11;;;;;;;15.30;6.10;;;;;;;3.26;67.05;103048.06;5011570;28;20128;-48
2022/02/28 08:17:39;;;;;;;11.48;5.57;;;;;;;3.29;67.33;103043.19;5011366;28;20466;-48
2022/02/28 08:20:10;;;;;;;10.95;5.50;;;;;;;3.32;66.99;103047.41;5010979;28;20119;-47
2022/02/28 08:22:37;;;;;;;12.23;6.50;;;;;;;3.32;66.71;103045.56;5015684;28;20053;-46
2022/02/28 08:25:06;;;;;;;10.80;5.35;;;;;;;3.34;66.81;103053.47;5022990;28;20128;-47
2022/02/28 08:27:33;;;;;;;12.23;6.22;;;;;;;3.38;66.30;103055.66;5029997;28;20041;-46
2022/02/28 08:30:02;;;;;;;11.70;6.13;;;;;;;3.38;66.14;103042.19;5028304;28;20050;-49
2022/02/28 08:32:30;;;;;;;11.35;6.45;;;;;;;3.41;66.36;103038.31;5011607;28;20049;-47
2022/02/28 08:34:57;;;;;;;12.82;6.07;;;;;;;3.46;65.96;103046.75;5011020;28;20050;-45
2022/02/28 08:37:25;;;;;;;13.63;6.05;;;;;;;3.49;66.01;103050.97;5009462;28;20119;-47
2022/02/28 08:39:54;;;;;;;11.13;5.85;;;;;;;3.51;65.64;103048.94;5010783;28;20053;-43
2022/02/28 08:42:22;;;;;;;10.95;6.20;;;;;;;3.50;65.54;103041.88;5026295;28;20399;-45
2022/02/28 08:44:50;;;;;;;10.45;6.18;;;;;;;3.50;65.75;103044.59;5013899;28;20450;-47
2022/02/28 08:47:19;;;;;;;12.55;6.90;;;;;;;3.53;66.03;103046.94;5013538;28;20477;-46
2022/02/28 08:49:46;;;;;;;10.65;6.10;;;;;;;3.51;65.53;103047.13;5013320;28;20092;-45
2022/02/28 08:52:14;;;;;;;12.57;6.82;;;;;;;3.51;66.10;103048.94;5013594;28;20046;-46
2022/02/28 08:54:42;;;;;;;12.90;6.82;;;;;;;3.54;65.60;103054.03;5004977;28;20447;-46
2022/02/28 08:57:15;;;;;;;12.85;6.78;;;;;;;3.55;65.68;103045.75;5012332;28;20096;-45
2022/02/28 08:59:42;;;;;;;12.63;6.38;;;;;;;3.57;66.23;103038.34;5011863;28;20469;-47
2022/02/28 09:02:11;;;;;;;12.52;6.63;;;;;;;3.62;66.69;103052.19;5010693;28;20077;-46
2022/02/28 09:04:39;;;;;;;12.45;6.45;;;;;;;3.65;65.86;103048.31;5019032;28;20560;-45
2022/02/28 09:07:07;;;;;;;13.05;6.47;;;;;;;3.65;65.92;103040.22;5031502;28;20049;-46
2022/02/28 09:09:35;;;;;;;13.70;6.20;;;;;;;3.70;65.72;103037.84;5030358;28;20385;-47
2022/02/28 09:12:03;;;;;;;12.40;6.25;;;;;;;3.73;65.93;103029.44;5032485;28;20041;-44
2022/02/28 09:14:31;;;;;;;12.85;6.78;;;;;;;3.78;65.62;103034.34;5031738;28;20038;-47
2022/02/28 09:16:58;;;;;;;12.25;6.78;;;;;;;3.81;66.09;103034.00;5033410;28;20033;-46
2022/02/28 09:19:26;;;;;;;13.48;7.20;;;;;;;3.82;65.58;103046.47;5032993;28;20409;-44
2022/02/28 09:21:53;;;;;;;20.35;6.85;;;;;;;3.88;66.63;103036.88;5033309;28;20128;-45
2022/02/28 09:24:22;;;;;;;17.30;7.47;;;;;;;3.92;65.81;103030.09;5033195;28;20124;-48
2022/02/28 09:26:50;;;;;;;14.30;7.38;;;;;;;3.96;65.98;103028.75;5014307;28;20050;-44
2022/02/28 09:29:18;;;;;;;12.88;6.78;;;;;;;3.98;65.94;103022.19;5013236;28;20069;-46
2022/02/28 09:31:46;;;;;;;12.68;6.95;;;;;;;4.01;65.80;103021.84;5013328;28;20121;-45
2022/02/28 09:34:14;;;;;;;11.52;7.32;;;;;;;4.04;66.13;103017.97;5013428;28;20057;-45
2022/02/28 09:36:42;;;;;;;12.05;6.57;;;;;;;4.07;66.17;103028.44;5020869;28;20046;-46
2022/02/28 09:39:10;;;;;;;14.18;6.85;;;;;;;4.10;66.05;103028.06;5013302;28;20234;-45
2022/02/28 09:42:00;;;;;;;13.45;6.43;;;;;;;4.13;66.52;103024.19;5012007;28;20046;-45
2022/02/28 09:44:55;;;;;;;12.35;7.07;;;;;;;4.16;66.52;103027.41;5011773;28;20054;-45
2022/02/28 09:47:41;;;;;;;14.18;7.20;;;;;;;4.21;66.30;103013.38;5028516;28;20042;-46
2022/02/28 09:50:28;;;;;;;11.02;6.60;;;;;;;4.26;66.12;103021.81;5031841;28;20482;-46
2022/02/28 09:52:55;;;;;;;11.85;6.63;;;;;;;4.30;66.16;103014.22;5032845;28;20041;-45
2022/02/28 09:55:56;;;;;;;12.50;6.75;;;;;;;4.31;65.65;103003.25;5009071;28;20057;-47
2022/02/28 09:58:42;;;;;;;11.27;6.57;;;;;;;4.34;64.88;103002.91;5032735;28;20480;-47
2022/02/28 10:01:13;;;;;;;10.88;6.70;;;;;;;4.34;61.64;102996.66;5031814;28;20044;-45
2022/02/28 10:03:46;;;;;;;11.48;6.72;;;;;;;4.37;61.07;102996.31;5031572;28;20096;-46
2022/02/28 10:06:15;;;;;;;9.80;5.97;;;;;;;4.38;61.33;102998.84;5031692;28;20037;-46
2022/02/28 10:08:46;;;;;;;12.80;6.25;;;;;;;4.40;59.88;102994.13;5030998;28;20480;-47
2022/02/28 10:11:25;;;;;;;12.10;5.72;;;;;;;4.44;61.71;102987.34;5032880;28;20481;-46
2022/02/28 10:13:54;;;;;;;12.70;5.60;;;;;;;4.48;60.65;102991.41;5032848;28;20535;-46
2022/02/28 10:16:38;;;;;;;11.55;5.60;;;;;;;4.52;60.50;102993.75;5027982;28;20122;-45
2022/02/28 10:19:10;;;;;;;11.15;6.05;;;;;;;4.54;60.88;102989.84;5013451;28;20046;-45
2022/02/28 10:22:06;;;;;;;13.40;6.55;;;;;;;4.57;59.96;102999.44;5013192;28;20050;-46
2022/02/28 10:24:39;;;;;;;13.10;6.03;;;;;;;4.65;61.57;103002.97;5011629;28;20120;-47
2022/02/28 10:27:41;;;;;;;13.23;6.07;;;;;;;4.74;61.41;103000.22;5022410;28;20100;-45
2022/02/28 10:30:54;;;;;;;10.80;6.40;;;;;;;4.77;61.33;103002.59;5013639;28;20038;-45
2022/02/28 10:33:41;;;;;;;10.88;6.00;;;;;;;4.80;60.65;102994.97;5017912;28;20049;-47
2022/02/28 10:36:35;;;;;;;14.13;6.40;;;;;;;4.84;61.12;103004.41;5009532;28;20060;-46
2022/02/28 10:39:10;;;;;;;10.32;6.20;;;;;;;4.85;61.25;103000.69;5016611;28;20048;-47
2022/02/28 10:41:41;;;;;;;11.43;5.72;;;;;;;4.95;63.15;103002.34;5015361;28;20381;-49
2022/02/28 10:44:11;;;;;;;11.77;6.60;;;;;;;5.02;61.10;102998.75;5017832;28;20397;-48
2022/02/28 10:46:45;;;;;;;11.70;6.60;;;;;;;5.03;62.02;102994.22;5034496;28;20120;-46
2022/02/28 10:49:19;;;;;;;12.93;6.80;;;;;;;5.01;60.93;102988.97;5034881;28;20120;-45
2022/02/28 10:51:59;;;;;;;12.80;7.28;;;;;;;5.11;62.66;102986.03;5036091;28;20382;-44
2022/02/28 10:54:37;;;;;;;11.38;6.97;;;;;;;5.13;59.98;102990.25;5034693;28;20051;-42
2022/02/28 10:57:15;;;;;;;12.15;7.00;;;;;;;5.11;60.03;102984.16;5022425;28;20041;-44
2022/02/28 10:59:46;;;;;;;13.35;7.38;;;;;;;5.12;60.50;102980.47;5015893;28;20111;-47
2022/02/28 11:02:34;;;;;;;11.48;6.50;;;;;;;5.18;60.31;102978.91;5016236;28;20073;-47
2022/02/28 11:05:15;;;;;;;12.07;6.75;;;;;;;5.21;59.40;102983.94;5029488;28;20484;-48
2022/02/28 11:07:47;;;;;;;11.85;6.97;;;;;;;5.20;58.95;102976.88;5033875;28;20053;-47
2022/02/28 11:10:17;;;;;;;12.82;6.80;;;;;;;5.21;59.11;102977.69;5035942;28;20040;-45
2022/02/28 11:12:46;;;;;;;11.18;6.68;;;;;;;5.21;58.61;102978.53;5034140;28;20041;-48
2022/02/28 11:15:19;;;;;;;13.35;6.93;;;;;;;5.24;58.78;102972.78;5019360;28;20124;-48
2022/02/28 11:17:48;;;;;;;10.27;5.97;;;;;;;5.29;58.35;102975.78;5015978;28;20042;-48
2022/02/28 11:20:17;;;;;;;11.57;6.88;;;;;;;5.31;57.95;102973.72;5014915;28;20052;-46
2022/02/28 11:22:48;;;;;;;11.15;6.78;;;;;;;5.38;58.20;102965.75;5015603;28;20411;-48
2022/02/28 11:25:18;;;;;;;12.77;6.90;;;;;;;5.43;58.24;102960.63;5032360;28;20041;-46
2022/02/28 11:27:47;;;;;;;12.18;7.40;;;;;;;5.48;58.05;102963.66;5032403;28;20044;-48
2022/02/28 11:30:21;;;;;;;10.68;6.40;;;;;;;5.57;57.95;102959.00;5034189;28;20101;-46
2022/02/28 11:33:12;;;;;;;11.43;6.32;;;;;;;5.66;59.55;102965.19;5034100;28;20041;-46
2022/02/28 11:36:00;;;;;;;10.55;7.07;;;;;;;5.66;57.87;102968.75;5035078;28;20460;-45
2022/02/28 11:38:30;;;;;;;11.07;7.03;;;;;;;5.67;57.95;102967.69;5033996;28;20562;-46
2022/02/28 11:41:04;;;;;;;13.63;7.68;;;;;;;5.67;57.51;102967.69;5034952;28;20056;-47
2022/02/28 11:43:32;;;;;;;14.00;7.32;;;;;;;5.68;56.73;102965.88;5033452;28;20050;-48
2022/02/28 11:46:05;;;;;;;12.60;7.47;;;;;;;5.67;56.74;102962.28;5034087;28;20172;-46